sensor_id;sensor_type;location;lat;lon;timestamp;pressure;altitude;pressure_sealevel;temperature;humidity
56825;BME280;42705;50.326;18.772;2023-08-21T00:03:08;98947.19;;;25.24;58.16
56825;BME280;42705;50.326;18.772;2023-08-21T00:08:31;98947.20;;;25.23;58.25
56825;BME280;42705;50.326;18.772;2023-08-21T00:13:52;98944.43;;;25.20;58.43
56825;BME280;42705;50.326;18.772;2023-08-21T00:19:13;98944.63;;;25.14;58.70
56825;BME280;42705;50.326;18.772;2023-08-21T00:24:34;98935.52;;;25.06;58.75
56825;BME280;42705;50.326;18.772;2023-08-21T00:29:55;98928.27;;;25.02;58.97
56825;BME280;42705;50.326;18.772;2023-08-21T00:35:16;98932.86;;;24.99;59.31
56825;BME280;42705;50.326;18.772;2023-08-21T00:40:38;98934.52;;;24.96;59.38
56825;BME280;42705;50.326;18.772;2023-08-21T00:45:59;98935.25;;;24.88;59.51
56825;BME280;42705;50.326;18.772;2023-08-21T00:51:20;98942.10;;;24.79;59.63
56825;BME280;42705;50.326;18.772;2023-08-21T00:56:41;98945.34;;;24.75;59.83
56825;BME280;42705;50.326;18.772;2023-08-21T01:02:03;98947.23;;;24.69;59.96
56825;BME280;42705;50.326;18.772;2023-08-21T01:07:24;98945.33;;;24.62;60.07
56825;BME280;42705;50.326;18.772;2023-08-21T01:12:56;98947.75;;;24.54;60.07
56825;BME280;42705;50.326;18.772;2023-08-21T01:18:22;98948.16;;;24.48;60.41
56825;BME280;42705;50.326;18.772;2023-08-21T01:23:44;98946.50;;;24.40;60.54
56825;BME280;42705;50.326;18.772;2023-08-21T01:29:05;98947.29;;;24.28;60.66
56825;BME280;42705;50.326;18.772;2023-08-21T01:34:28;98946.42;;;24.16;60.72
56825;BME280;42705;50.326;18.772;2023-08-21T01:39:49;98936.39;;;24.05;60.90
56825;BME280;42705;50.326;18.772;2023-08-21T01:45:10;98935.33;;;24.01;61.11
56825;BME280;42705;50.326;18.772;2023-08-21T01:50:32;98935.11;;;24.00;61.31
56825;BME280;42705;50.326;18.772;2023-08-21T01:55:54;98934.63;;;24.00;61.36
56825;BME280;42705;50.326;18.772;2023-08-21T02:01:15;98937.19;;;23.98;61.22
56825;BME280;42705;50.326;18.772;2023-08-21T02:06:36;98934.14;;;23.98;61.17
56825;BME280;42705;50.326;18.772;2023-08-21T02:11:57;98923.88;;;23.98;61.28
56825;BME280;42705;50.326;18.772;2023-08-21T02:17:18;98923.94;;;23.97;61.38
56825;BME280;42705;50.326;18.772;2023-08-21T02:22:39;98919.84;;;23.93;61.47
56825;BME280;42705;50.326;18.772;2023-08-21T02:28:01;98909.48;;;23.92;61.65
56825;BME280;42705;50.326;18.772;2023-08-21T02:33:24;98904.17;;;23.92;61.68
56825;BME280;42705;50.326;18.772;2023-08-21T02:38:46;98908.11;;;23.88;61.77
56825;BME280;42705;50.326;18.772;2023-08-21T02:44:07;98913.59;;;23.82;61.71
56825;BME280;42705;50.326;18.772;2023-08-21T02:49:28;98915.55;;;23.77;61.78
56825;BME280;42705;50.326;18.772;2023-08-21T02:54:49;98911.55;;;23.71;61.65
56825;BME280;42705;50.326;18.772;2023-08-21T03:00:10;98910.45;;;23.54;61.60
56825;BME280;42705;50.326;18.772;2023-08-21T03:05:32;98914.75;;;23.28;61.84
56825;BME280;42705;50.326;18.772;2023-08-21T03:10:54;98919.64;;;22.95;62.01
56825;BME280;42705;50.326;18.772;2023-08-21T03:16:15;98925.41;;;22.70;62.56
56825;BME280;42705;50.326;18.772;2023-08-21T03:21:37;98925.95;;;22.68;63.04
56825;BME280;42705;50.326;18.772;2023-08-21T03:26:58;98922.36;;;22.75;63.29
56825;BME280;42705;50.326;18.772;2023-08-21T03:32:20;98922.15;;;22.78;63.24
56825;BME280;42705;50.326;18.772;2023-08-21T03:37:41;98922.80;;;22.82;63.34
56825;BME280;42705;50.326;18.772;2023-08-21T03:43:04;98923.16;;;22.85;63.27
56825;BME280;42705;50.326;18.772;2023-08-21T03:48:25;98922.23;;;22.82;63.30
56825;BME280;42705;50.326;18.772;2023-08-21T03:53:46;98925.32;;;22.69;63.33
56825;BME280;42705;50.326;18.772;2023-08-21T03:59:08;98918.56;;;22.65;63.55
56825;BME280;42705;50.326;18.772;2023-08-21T04:04:29;98924.09;;;22.74;63.72
56825;BME280;42705;50.326;18.772;2023-08-21T04:09:50;98923.17;;;22.78;63.66
56825;BME280;42705;50.326;18.772;2023-08-21T04:15:11;98916.45;;;22.78;63.63
56825;BME280;42705;50.326;18.772;2023-08-21T04:20:32;98903.34;;;22.90;63.73
56825;BME280;42705;50.326;18.772;2023-08-21T04:26:00;98909.42;;;23.05;63.79
56825;BME280;42705;50.326;18.772;2023-08-21T04:31:21;98912.55;;;23.15;63.56
56825;BME280;42705;50.326;18.772;2023-08-21T04:36:43;98909.73;;;23.20;63.47
56825;BME280;42705;50.326;18.772;2023-08-21T04:42:05;98912.05;;;23.27;63.36
56825;BME280;42705;50.326;18.772;2023-08-21T04:47:26;98915.45;;;23.37;63.47
56825;BME280;42705;50.326;18.772;2023-08-21T04:52:50;98922.55;;;23.44;63.15
56825;BME280;42705;50.326;18.772;2023-08-21T04:58:11;98925.67;;;23.47;62.95
56825;BME280;42705;50.326;18.772;2023-08-21T05:03:33;98931.41;;;23.62;62.93
56825;BME280;42705;50.326;18.772;2023-08-21T05:08:54;98937.96;;;23.72;62.64
56825;BME280;42705;50.326;18.772;2023-08-21T05:14:15;98943.96;;;23.71;62.36
56825;BME280;42705;50.326;18.772;2023-08-21T05:19:38;98943.41;;;23.64;62.43
56825;BME280;42705;50.326;18.772;2023-08-21T05:24:59;98951.98;;;23.64;62.44
56825;BME280;42705;50.326;18.772;2023-08-21T05:30:20;98949.30;;;23.74;62.32
56825;BME280;42705;50.326;18.772;2023-08-21T05:35:42;98954.89;;;23.90;62.41
56825;BME280;42705;50.326;18.772;2023-08-21T05:41:05;98950.84;;;24.00;62.10
56825;BME280;42705;50.326;18.772;2023-08-21T05:46:26;98964.61;;;24.08;62.01
56825;BME280;42705;50.326;18.772;2023-08-21T05:51:47;98962.89;;;24.06;61.94
56825;BME280;42705;50.326;18.772;2023-08-21T05:57:08;98970.07;;;24.03;61.71
56825;BME280;42705;50.326;18.772;2023-08-21T06:02:29;98992.75;;;24.00;61.96
56825;BME280;42705;50.326;18.772;2023-08-21T06:07:51;98999.70;;;23.92;62.23
56825;BME280;42705;50.326;18.772;2023-08-21T06:13:13;98998.66;;;23.88;62.30
56825;BME280;42705;50.326;18.772;2023-08-21T06:18:34;99015.80;;;23.91;62.47
56825;BME280;42705;50.326;18.772;2023-08-21T06:23:55;99014.73;;;23.90;62.49
56825;BME280;42705;50.326;18.772;2023-08-21T06:29:17;99013.99;;;23.92;62.51
56825;BME280;42705;50.326;18.772;2023-08-21T06:34:38;99019.12;;;23.94;62.61
56825;BME280;42705;50.326;18.772;2023-08-21T06:39:59;99020.67;;;23.95;62.48
56825;BME280;42705;50.326;18.772;2023-08-21T06:45:22;99023.99;;;23.97;62.53
56825;BME280;42705;50.326;18.772;2023-08-21T06:50:43;99032.02;;;23.96;62.59
56825;BME280;42705;50.326;18.772;2023-08-21T06:56:05;99026.84;;;23.96;62.57
56825;BME280;42705;50.326;18.772;2023-08-21T07:01:26;99024.20;;;24.00;62.63
56825;BME280;42705;50.326;18.772;2023-08-21T07:06:47;99029.71;;;24.04;62.64
56825;BME280;42705;50.326;18.772;2023-08-21T07:12:08;99030.13;;;24.10;62.63
56825;BME280;42705;50.326;18.772;2023-08-21T07:17:29;99031.64;;;24.18;62.56
56825;BME280;42705;50.326;18.772;2023-08-21T07:22:50;99032.73;;;24.30;62.51
56825;BME280;42705;50.326;18.772;2023-08-21T07:28:12;99032.02;;;24.49;62.40
56825;BME280;42705;50.326;18.772;2023-08-21T07:33:33;99040.77;;;24.64;62.15
56825;BME280;42705;50.326;18.772;2023-08-21T07:38:54;99041.40;;;24.75;61.98
56825;BME280;42705;50.326;18.772;2023-08-21T07:44:15;99039.17;;;24.91;62.09
56825;BME280;42705;50.326;18.772;2023-08-21T07:49:36;99040.65;;;25.18;61.53
56825;BME280;42705;50.326;18.772;2023-08-21T07:54:57;99035.96;;;25.46;61.18
56825;BME280;42705;50.326;18.772;2023-08-21T08:00:20;99036.11;;;25.64;60.63
56825;BME280;42705;50.326;18.772;2023-08-21T08:05:41;99037.34;;;25.79;60.69
56825;BME280;42705;50.326;18.772;2023-08-21T08:11:03;99039.04;;;25.90;60.34
56825;BME280;42705;50.326;18.772;2023-08-21T08:16:24;99039.45;;;25.97;60.17
56825;BME280;42705;50.326;18.772;2023-08-21T08:21:46;99038.92;;;26.02;59.79
56825;BME280;42705;50.326;18.772;2023-08-21T08:27:07;99045.99;;;26.11;59.44
56825;BME280;42705;50.326;18.772;2023-08-21T08:32:29;99037.89;;;26.25;59.21
56825;BME280;42705;50.326;18.772;2023-08-21T08:37:50;99035.99;;;26.31;59.02
56825;BME280;42705;50.326;18.772;2023-08-21T08:43:12;99042.65;;;26.37;58.78
56825;BME280;42705;50.326;18.772;2023-08-21T08:48:35;99044.27;;;26.44;58.71
56825;BME280;42705;50.326;18.772;2023-08-21T08:53:57;99028.27;;;26.47;58.69
56825;BME280;42705;50.326;18.772;2023-08-21T08:59:19;99025.45;;;26.48;58.64
56825;BME280;42705;50.326;18.772;2023-08-21T09:04:41;99023.61;;;26.57;58.72
56825;BME280;42705;50.326;18.772;2023-08-21T09:10:02;99031.01;;;26.70;58.68
56825;BME280;42705;50.326;18.772;2023-08-21T09:15:28;99034.70;;;26.93;58.41
56825;BME280;42705;50.326;18.772;2023-08-21T09:20:50;99029.99;;;27.25;57.95
56825;BME280;42705;50.326;18.772;2023-08-21T09:26:22;99028.70;;;27.57;57.44
56825;BME280;42705;50.326;18.772;2023-08-21T09:31:43;99021.86;;;27.84;56.98
56825;BME280;42705;50.326;18.772;2023-08-21T09:37:07;99017.54;;;28.04;56.54
56825;BME280;42705;50.326;18.772;2023-08-21T09:42:29;99023.27;;;28.34;56.17
56825;BME280;42705;50.326;18.772;2023-08-21T09:47:53;99019.13;;;28.65;55.29
56825;BME280;42705;50.326;18.772;2023-08-21T09:53:15;99016.84;;;28.90;54.72
56825;BME280;42705;50.326;18.772;2023-08-21T09:58:37;99009.83;;;29.09;54.12
56825;BME280;42705;50.326;18.772;2023-08-21T10:04:00;99008.38;;;29.01;53.62
56825;BME280;42705;50.326;18.772;2023-08-21T10:09:24;99015.28;;;28.91;53.75
56825;BME280;42705;50.326;18.772;2023-08-21T10:14:46;99014.40;;;28.82;53.96
56825;BME280;42705;50.326;18.772;2023-08-21T10:20:08;99017.45;;;28.51;53.71
56825;BME280;42705;50.326;18.772;2023-08-21T10:25:30;99015.20;;;28.19;54.05
56825;BME280;42705;50.326;18.772;2023-08-21T10:30:51;99009.09;;;28.04;54.19
56825;BME280;42705;50.326;18.772;2023-08-21T10:36:13;98998.97;;;27.92;54.16
56825;BME280;42705;50.326;18.772;2023-08-21T10:41:36;98982.16;;;27.92;54.34
56825;BME280;42705;50.326;18.772;2023-08-21T10:47:22;98976.67;;;27.98;54.30
56825;BME280;42705;50.326;18.772;2023-08-21T10:52:44;98975.11;;;28.09;54.44
56825;BME280;42705;50.326;18.772;2023-08-21T10:58:08;98987.66;;;28.24;54.25
56825;BME280;42705;50.326;18.772;2023-08-21T11:03:32;98990.05;;;28.42;54.18
56825;BME280;42705;50.326;18.772;2023-08-21T11:08:53;98995.48;;;28.65;53.95
56825;BME280;42705;50.326;18.772;2023-08-21T11:14:14;98995.11;;;29.06;53.65
56825;BME280;42705;50.326;18.772;2023-08-21T11:19:36;98999.13;;;29.49;53.25
56825;BME280;42705;50.326;18.772;2023-08-21T11:24:57;99000.98;;;29.73;52.94
56825;BME280;42705;50.326;18.772;2023-08-21T11:30:18;98999.00;;;29.81;51.93
56825;BME280;42705;50.326;18.772;2023-08-21T11:35:40;98985.74;;;30.08;51.32
56825;BME280;42705;50.326;18.772;2023-08-21T11:41:05;98981.11;;;30.49;51.00
56825;BME280;42705;50.326;18.772;2023-08-21T11:46:26;98979.86;;;30.93;50.59
56825;BME280;42705;50.326;18.772;2023-08-21T11:51:47;98986.25;;;31.33;49.89
56825;BME280;42705;50.326;18.772;2023-08-21T11:57:13;98985.29;;;31.52;49.13
56825;BME280;42705;50.326;18.772;2023-08-21T12:02:34;98989.69;;;31.71;48.54
56825;BME280;42705;50.326;18.772;2023-08-21T12:07:56;98977.63;;;32.04;48.20
56825;BME280;42705;50.326;18.772;2023-08-21T12:13:17;98978.02;;;32.24;47.66
56825;BME280;42705;50.326;18.772;2023-08-21T12:18:38;98975.55;;;32.38;47.09
56825;BME280;42705;50.326;18.772;2023-08-21T12:23:59;98980.80;;;32.48;46.59
56825;BME280;42705;50.326;18.772;2023-08-21T12:29:20;98974.16;;;32.63;46.28
56825;BME280;42705;50.326;18.772;2023-08-21T12:34:41;98970.11;;;32.82;45.98
56825;BME280;42705;50.326;18.772;2023-08-21T12:40:06;98962.73;;;32.87;45.58
56825;BME280;42705;50.326;18.772;2023-08-21T12:45:27;98962.86;;;33.06;45.23
56825;BME280;42705;50.326;18.772;2023-08-21T12:50:48;98953.15;;;33.44;44.53
56825;BME280;42705;50.326;18.772;2023-08-21T12:56:11;98946.98;;;34.02;43.31
56825;BME280;42705;50.326;18.772;2023-08-21T13:01:32;98933.81;;;34.55;42.44
56825;BME280;42705;50.326;18.772;2023-08-21T13:06:55;98928.89;;;35.96;41.06
56825;BME280;42705;50.326;18.772;2023-08-21T13:12:16;98920.99;;;39.91;36.81
56825;BME280;42705;50.326;18.772;2023-08-21T13:17:37;98918.55;;;43.55;32.36
56825;BME280;42705;50.326;18.772;2023-08-21T13:22:59;98915.02;;;46.57;28.75
56825;BME280;42705;50.326;18.772;2023-08-21T13:28:20;98902.00;;;49.23;25.88
56825;BME280;42705;50.326;18.772;2023-08-21T13:33:48;98902.59;;;51.95;23.12
56825;BME280;42705;50.326;18.772;2023-08-21T13:39:10;98900.66;;;53.77;20.62
56825;BME280;42705;50.326;18.772;2023-08-21T13:44:33;98891.85;;;55.11;18.90
56825;BME280;42705;50.326;18.772;2023-08-21T13:49:55;98890.36;;;56.24;17.71
56825;BME280;42705;50.326;18.772;2023-08-21T13:55:16;98885.41;;;56.88;16.75
56825;BME280;42705;50.326;18.772;2023-08-21T14:00:38;98877.92;;;57.55;16.25
56825;BME280;42705;50.326;18.772;2023-08-21T14:05:59;98871.27;;;57.92;15.31
56825;BME280;42705;50.326;18.772;2023-08-21T14:11:21;98868.54;;;58.04;14.63
56825;BME280;42705;50.326;18.772;2023-08-21T14:16:42;98865.11;;;57.71;14.58
56825;BME280;42705;50.326;18.772;2023-08-21T14:22:03;98862.55;;;57.40;14.37
56825;BME280;42705;50.326;18.772;2023-08-21T14:27:25;98851.52;;;57.06;14.47
56825;BME280;42705;50.326;18.772;2023-08-21T14:32:47;98847.71;;;56.66;14.61
56825;BME280;42705;50.326;18.772;2023-08-21T14:38:08;98840.71;;;55.94;14.82
56825;BME280;42705;50.326;18.772;2023-08-21T14:43:29;98829.41;;;54.62;15.53
56825;BME280;42705;50.326;18.772;2023-08-21T14:48:53;98823.12;;;52.34;16.50
56825;BME280;42705;50.326;18.772;2023-08-21T14:54:14;98821.48;;;50.03;17.70
56825;BME280;42705;50.326;18.772;2023-08-21T14:59:35;98816.29;;;48.03;19.06
56825;BME280;42705;50.326;18.772;2023-08-21T15:04:56;98819.30;;;46.88;19.98
56825;BME280;42705;50.326;18.772;2023-08-21T15:10:17;98822.21;;;45.29;21.05
56825;BME280;42705;50.326;18.772;2023-08-21T15:15:38;98819.48;;;43.44;22.51
56825;BME280;42705;50.326;18.772;2023-08-21T15:20:59;98818.55;;;41.87;24.13
56825;BME280;42705;50.326;18.772;2023-08-21T15:26:21;98822.48;;;40.82;25.16
56825;BME280;42705;50.326;18.772;2023-08-21T15:31:42;98823.48;;;40.33;26.40
56825;BME280;42705;50.326;18.772;2023-08-21T15:37:03;98823.91;;;40.48;26.44
56825;BME280;42705;50.326;18.772;2023-08-21T15:42:25;98820.11;;;40.33;27.10
56825;BME280;42705;50.326;18.772;2023-08-21T15:47:46;98819.02;;;39.69;27.88
56825;BME280;42705;50.326;18.772;2023-08-21T15:53:09;98812.39;;;40.03;27.88
56825;BME280;42705;50.326;18.772;2023-08-21T15:58:30;98815.88;;;40.23;28.03
56825;BME280;42705;50.326;18.772;2023-08-21T16:03:51;98807.73;;;40.14;28.09
56825;BME280;42705;50.326;18.772;2023-08-21T16:09:12;98805.80;;;39.87;28.46
56825;BME280;42705;50.326;18.772;2023-08-21T16:14:34;98807.56;;;39.33;29.18
56825;BME280;42705;50.326;18.772;2023-08-21T16:19:55;98813.54;;;38.44;30.00
56825;BME280;42705;50.326;18.772;2023-08-21T16:25:16;98816.76;;;37.46;31.14
56825;BME280;42705;50.326;18.772;2023-08-21T16:30:37;98820.05;;;36.46;32.48
56825;BME280;42705;50.326;18.772;2023-08-21T16:35:59;98826.63;;;35.64;33.51
56825;BME280;42705;50.326;18.772;2023-08-21T16:41:20;98824.20;;;35.19;34.48
56825;BME280;42705;50.326;18.772;2023-08-21T16:46:41;98821.56;;;35.31;34.91
56825;BME280;42705;50.326;18.772;2023-08-21T16:52:02;98829.06;;;35.32;35.19
56825;BME280;42705;50.326;18.772;2023-08-21T16:57:24;98835.95;;;35.23;35.80
56825;BME280;42705;50.326;18.772;2023-08-21T17:02:45;98838.85;;;35.05;36.47
56825;BME280;42705;50.326;18.772;2023-08-21T17:08:07;98847.20;;;34.48;37.32
56825;BME280;42705;50.326;18.772;2023-08-21T17:13:30;98844.23;;;33.89;38.27
56825;BME280;42705;50.326;18.772;2023-08-21T17:18:51;98848.06;;;33.31;39.28
56825;BME280;42705;50.326;18.772;2023-08-21T17:24:12;98853.09;;;32.71;40.42
56825;BME280;42705;50.326;18.772;2023-08-21T17:29:34;98858.64;;;32.17;41.31
56825;BME280;42705;50.326;18.772;2023-08-21T17:34:58;98858.86;;;31.73;42.37
56825;BME280;42705;50.326;18.772;2023-08-21T17:40:20;98856.14;;;31.31;43.50
56825;BME280;42705;50.326;18.772;2023-08-21T17:45:41;98854.91;;;30.88;44.04
56825;BME280;42705;50.326;18.772;2023-08-21T17:51:02;98857.67;;;30.48;45.10
56825;BME280;42705;50.326;18.772;2023-08-21T17:56:25;98862.55;;;30.16;45.97
56825;BME280;42705;50.326;18.772;2023-08-21T18:01:46;98865.08;;;29.83;46.73
56825;BME280;42705;50.326;18.772;2023-08-21T18:07:08;98868.55;;;29.51;47.44
56825;BME280;42705;50.326;18.772;2023-08-21T18:12:29;98864.95;;;29.18;48.24
56825;BME280;42705;50.326;18.772;2023-08-21T18:17:50;98867.57;;;28.84;48.99
56825;BME280;42705;50.326;18.772;2023-08-21T18:23:11;98870.02;;;28.54;49.59
56825;BME280;42705;50.326;18.772;2023-08-21T18:28:33;98874.04;;;28.25;50.34
56825;BME280;42705;50.326;18.772;2023-08-21T18:33:54;98876.30;;;28.04;50.93
56825;BME280;42705;50.326;18.772;2023-08-21T18:39:15;98875.10;;;27.85;51.58
56825;BME280;42705;50.326;18.772;2023-08-21T18:44:36;98885.74;;;27.63;52.00
56825;BME280;42705;50.326;18.772;2023-08-21T18:49:58;98891.48;;;27.37;52.69
56825;BME280;42705;50.326;18.772;2023-08-21T18:55:19;98897.97;;;27.16;53.22
56825;BME280;42705;50.326;18.772;2023-08-21T19:00:41;98903.60;;;26.99;53.53
56825;BME280;42705;50.326;18.772;2023-08-21T19:06:02;98909.40;;;26.85;53.96
56825;BME280;42705;50.326;18.772;2023-08-21T19:11:23;98918.91;;;26.73;54.25
56825;BME280;42705;50.326;18.772;2023-08-21T19:16:45;98921.09;;;26.62;54.32
56825;BME280;42705;50.326;18.772;2023-08-21T19:22:09;98925.77;;;26.51;54.49
56825;BME280;42705;50.326;18.772;2023-08-21T19:27:32;98932.46;;;26.40;54.52
56825;BME280;42705;50.326;18.772;2023-08-21T19:32:56;98940.83;;;26.30;54.68
56825;BME280;42705;50.326;18.772;2023-08-21T19:38:19;98948.55;;;26.21;54.76
56825;BME280;42705;50.326;18.772;2023-08-21T19:43:43;98954.17;;;26.09;54.78
56825;BME280;42705;50.326;18.772;2023-08-21T19:49:07;98949.40;;;26.00;54.83
56825;BME280;42705;50.326;18.772;2023-08-21T19:54:34;98952.00;;;25.97;54.87
56825;BME280;42705;50.326;18.772;2023-08-21T20:00:00;98954.84;;;25.98;55.09
56825;BME280;42705;50.326;18.772;2023-08-21T20:05:29;98955.92;;;25.97;55.07
56825;BME280;42705;50.326;18.772;2023-08-21T20:10:55;98959.98;;;25.93;55.06
56825;BME280;42705;50.326;18.772;2023-08-21T20:16:19;98964.20;;;25.85;55.00
56825;BME280;42705;50.326;18.772;2023-08-21T20:21:55;98960.21;;;25.77;55.34
56825;BME280;42705;50.326;18.772;2023-08-21T20:27:22;98958.48;;;25.67;55.20
56825;BME280;42705;50.326;18.772;2023-08-21T20:32:48;98960.66;;;25.59;55.47
56825;BME280;42705;50.326;18.772;2023-08-21T20:38:12;98957.23;;;25.51;55.69
56825;BME280;42705;50.326;18.772;2023-08-21T20:43:36;98957.73;;;25.48;55.98
56825;BME280;42705;50.326;18.772;2023-08-21T20:49:02;98958.92;;;25.46;56.07
56825;BME280;42705;50.326;18.772;2023-08-21T20:54:25;98958.20;;;25.41;56.09
56825;BME280;42705;50.326;18.772;2023-08-21T20:59:50;98956.46;;;25.35;56.15
56825;BME280;42705;50.326;18.772;2023-08-21T21:05:15;98963.83;;;25.25;56.08
56825;BME280;42705;50.326;18.772;2023-08-21T21:10:38;98964.38;;;25.18;56.23
56825;BME280;42705;50.326;18.772;2023-08-21T21:16:03;98966.58;;;25.09;56.59
56825;BME280;42705;50.326;18.772;2023-08-21T21:21:25;98969.40;;;24.98;56.88
56825;BME280;42705;50.326;18.772;2023-08-21T21:26:48;98973.29;;;24.93;57.15
56825;BME280;42705;50.326;18.772;2023-08-21T21:32:10;98976.02;;;24.92;57.51
56825;BME280;42705;50.326;18.772;2023-08-21T21:37:31;98975.22;;;24.90;57.65
56825;BME280;42705;50.326;18.772;2023-08-21T21:42:54;98979.99;;;24.86;57.82
56825;BME280;42705;50.326;18.772;2023-08-21T21:48:15;98979.56;;;24.78;57.85
56825;BME280;42705;50.326;18.772;2023-08-21T21:53:36;98974.46;;;24.67;58.02
56825;BME280;42705;50.326;18.772;2023-08-21T21:58:57;98976.59;;;24.61;58.28
56825;BME280;42705;50.326;18.772;2023-08-21T22:04:18;98980.44;;;24.55;58.47
56825;BME280;42705;50.326;18.772;2023-08-21T22:09:39;98985.35;;;24.49;58.53
56825;BME280;42705;50.326;18.772;2023-08-21T22:15:02;98988.07;;;24.44;58.59
56825;BME280;42705;50.326;18.772;2023-08-21T22:20:25;98985.38;;;24.40;58.71
56825;BME280;42705;50.326;18.772;2023-08-21T22:25:47;98988.65;;;24.37;58.70
56825;BME280;42705;50.326;18.772;2023-08-21T22:31:08;98993.40;;;24.40;58.84
56825;BME280;42705;50.326;18.772;2023-08-21T22:36:29;98994.15;;;24.47;58.84
56825;BME280;42705;50.326;18.772;2023-08-21T22:41:50;98997.95;;;24.50;58.86
56825;BME280;42705;50.326;18.772;2023-08-21T22:47:12;98978.95;;;24.50;58.79
56825;BME280;42705;50.326;18.772;2023-08-21T22:52:33;98964.72;;;24.49;58.75
56825;BME280;42705;50.326;18.772;2023-08-21T22:57:54;98963.52;;;24.45;58.64
56825;BME280;42705;50.326;18.772;2023-08-21T23:03:15;98968.20;;;24.40;58.68
56825;BME280;42705;50.326;18.772;2023-08-21T23:08:36;98973.33;;;24.42;58.88
56825;BME280;42705;50.326;18.772;2023-08-21T23:13:57;98967.89;;;24.46;59.01
56825;BME280;42705;50.326;18.772;2023-08-21T23:19:19;98958.61;;;24.46;58.94
56825;BME280;42705;50.326;18.772;2023-08-21T23:24:42;98954.05;;;24.42;58.91
56825;BME280;42705;50.326;18.772;2023-08-21T23:30:04;98954.54;;;24.37;58.99
56825;BME280;42705;50.326;18.772;2023-08-21T23:35:25;98948.23;;;24.34;59.09
56825;BME280;42705;50.326;18.772;2023-08-21T23:40:46;98951.58;;;24.34;59.27
56825;BME280;42705;50.326;18.772;2023-08-21T23:46:08;98945.37;;;24.33;59.55
56825;BME280;42705;50.326;18.772;2023-08-21T23:51:29;98939.44;;;24.28;59.67
56825;BME280;42705;50.326;18.772;2023-08-21T23:56:50;98931.59;;;24.20;59.80
